Flight Track Log - Related Links

Times and Time Zones

All times are in EDT time to prevent confusion due to time zone crossing. See the SAS2711 flight status page for this flight to view local times or setup timezone preferences in your user account.

Time Position Orientation Groundspeed Altitude Reporting Facility
EDT Latitude Longitude Course Direction KTS MPH feet Rate Location/Type
Wed 11:53:00 PM 60.2986 21.7428 230° Southwest  Level Estimated
Wed 11:54:00 PM 60.2263 21.5709 230° Southwest  Level Estimated
Wed 11:55:00 PM 60.1538 21.3999 230° Southwest  Level Estimated
Wed 11:56:00 PM 60.0811 21.2295 229° Southwest  Level Estimated
Wed 11:57:00 PM 60.0081 21.0600 229° Southwest  Level Estimated
Wed 11:58:00 PM 59.9350 20.8912 229° Southwest  Level Estimated
Wed 11:59:00 PM 59.8616 20.7231 229° Southwest  Level Estimated
Thu 12:00:00 AM 59.7880 20.5558 229° Southwest  Level Estimated
Thu 12:01:00 AM 59.7142 20.3892 229° Southwest  Level Estimated
Thu 12:02:00 AM 59.6401 20.2233 229° Southwest  Level Estimated
Thu 12:03:00 AM 59.5659 20.0582 228° Southwest  Level Estimated
Thu 12:04:00 AM 59.4915 19.8938 228° Southwest  Level Estimated
Thu 12:05:00 AM 59.4169 19.7301 228° Southwest  Level Estimated
Thu 12:06:00 AM 59.3420 19.5672 228° Southwest  Level Estimated
Thu 12:07:00 AM 59.2670 19.4049 228° Southwest  Level Estimated
Thu 12:08:00 AM 59.1917 19.2434 228° Southwest  Level Estimated
Thu 12:09:00 AM 59.1163 19.0826 228° Southwest  Level Estimated
Thu 12:10:00 AM 59.0406 18.9225 227° Southwest  Level Estimated
Thu 12:11:00 AM 58.9648 18.7631 227° Southwest  Level Estimated
Thu 12:12:00 AM 58.8888 18.6044 227° Southwest  Level Estimated
Thu 12:13:00 AM 58.8125 18.4464 227° Southwest  Level Estimated
Thu 12:14:00 AM 58.7361 18.2891 227° Southwest  Level Estimated
Thu 12:15:00 AM 58.6595 18.1325 227° Southwest  Level Estimated
Thu 12:16:00 AM 58.5827 17.9765 227° Southwest  Level Estimated
Thu 12:17:00 AM 58.5057 17.8213 227° Southwest  Level Estimated
Thu 12:18:00 AM 58.4286 17.6667 226° Southwest  Level Estimated
Thu 12:19:00 AM 58.3512 17.5128 226° Southwest  Level Estimated
Thu 12:20:00 AM 58.2737 17.3596 226° Southwest  Level Estimated
Thu 12:21:00 AM 58.1959 17.2071 226° Southwest  Level Estimated
Thu 12:22:00 AM 58.1180 17.0552 226° Southwest  Level Estimated
Thu 12:23:00 AM 58.0399 16.9040 226° Southwest  Level Estimated
Thu 12:24:00 AM 57.9617 16.7534 226° Southwest  Level Estimated
Thu 12:25:00 AM 57.8832 16.6035 225° Southwest  Level Estimated
Thu 12:26:00 AM 57.8046 16.4543 225° Southwest  Level Estimated
Thu 12:27:00 AM 57.7258 16.3057 225° Southwest  Level Estimated
Thu 12:28:00 AM 57.6469 16.1577 225° Southwest  Level Estimated
Thu 12:29:00 AM 57.5677 16.0104 225° Southwest  Level Estimated
Thu 12:30:00 AM 57.4884 15.8637 225° Southwest  Level Estimated
Thu 12:31:00 AM 57.4089 15.7177 225° Southwest  Level Estimated
Thu 12:32:00 AM 57.3293 15.5723 225° Southwest  Level Estimated
Thu 12:33:00 AM 57.2495 15.4275 224° Southwest  Level Estimated
Thu 12:34:00 AM 57.1695 15.2834 224° Southwest  Level Estimated
Thu 12:35:00 AM 57.0894 15.1399 224° Southwest  Level Estimated
Thu 12:36:00 AM 57.0090 14.9970 224° Southwest  Level Estimated
Thu 12:37:00 AM 56.9286 14.8547 224° Southwest  Level Estimated
Thu 12:38:00 AM 56.8479 14.7130 224° Southwest  Level Estimated
Thu 12:39:00 AM 56.7672 14.5720 224° Southwest  Level Estimated
Thu 12:40:00 AM 56.6862 14.4315 224° Southwest  Level Estimated
Thu 12:41:00 AM 56.6051 14.2916 224° Southwest  Level Estimated
Thu 12:42:00 AM 56.5238 14.1524 223° Southwest  Level Estimated
Thu 12:43:00 AM 56.4424 14.0138 223° Southwest  Level Estimated
Thu 12:44:00 AM 56.3609 13.8757 223° Southwest  Level Estimated
Thu 12:45:00 AM 56.2791 13.7382 223° Southwest  Level Estimated
Thu 12:46:00 AM 56.1973 13.6013 223° Southwest  Level Estimated
Thu 12:47:00 AM 56.1152 13.4650 223° Southwest  Level Estimated
Thu 12:48:00 AM 56.0331 13.3293 223° Southwest  Level Estimated
Thu 12:49:00 AM 55.9507 13.1942 223° Southwest  Level Estimated
Thu 12:50:00 AM 55.8683 13.0596 223° Southwest  Level Estimated
Thu 12:51:00 AM 55.7857 12.9256 222° Southwest  Level Estimated
Thu 12:52:00 AM 55.7029 12.7922 222° Southwest  Level Estimated
Thu 12:53:00 AM 55.6200 12.6593 222° Southwest  Level Estimated
Thu 12:54:00 AM 55.6179 12.6560 222° Southwest  Level Estimated
Thu 12:55:00 AM 55.6179 12.6560 North  Level Estimated
Thu 12:56:00 AM 55.6179 12.6560 North  Level Estimated
Thu 12:57:00 AM 55.6179 12.6560 North  Level Estimated
Thu 12:58:00 AM 55.6179 12.6560 North  Level Estimated
Thu 12:59:00 AM 55.6179 12.6560 North  Level Estimated
Thu 01:00:00 AM 55.6179 12.6560 North  Level Estimated
Thu 01:01:00 AM 55.6179 12.6560 North  Level Estimated
Thu 01:02:00 AM 55.6179 12.6560 North  Level Estimated
Thu 01:03:00 AM 55.6179 12.6560 North  Level Estimated
Thu 01:04:00 AM 55.6179 12.6560 North  Level Estimated
Thu 01:05:00 AM 55.6179 12.6560 North  Level Estimated
Thu 01:06:00 AM 55.6179 12.6560 North  Level Estimated
Thu 01:07:00 AM 55.6179 12.6560 North  Level Estimated
Thu 01:08:00 AM 55.6179 12.6560 North  Level Estimated
Thu 01:09:00 AM 55.6179 12.6560 North  Level Estimated

Login

Don't have an account? Register now (free) for customized features, flight alerts, and more!